Time;durP1;ratioP1;P1;durP2;ratioP2;P2;SDS_P1;SDS_P2;PMS_P1;PMS_P2;Temp;Humidity;BMP_temperature;BMP_pressure;BME280_temperature;BME280_humidity;BME280_pressure;Samples;Min_cycle;Max_cycle;Signal;HPM_P1;HPM_P2
2021/08/20 00:01:41;;;;;;;1.90;1.80;;;20.80;99.90;;;;;;4944347;28;20276;-79
2021/08/20 00:07:26;;;;;;;1.50;1.40;;;20.80;99.90;;;;;;4925286;23;20238;-76
2021/08/20 00:09:54;;;;;;;1.70;1.52;;;20.80;99.90;;;;;;5013652;28;20232;-78
2021/08/20 00:12:22;;;;;;;1.70;1.60;;;20.80;99.90;;;;;;5023432;28;20223;-78
2021/08/20 00:14:49;;;;;;;1.77;1.60;;;20.70;99.90;;;;;;5021529;28;20219;-79
2021/08/20 00:17:16;;;;;;;1.90;1.80;;;20.70;99.90;;;;;;5017500;28;20223;-79
2021/08/20 00:19:43;;;;;;;1.83;1.73;;;20.70;99.90;;;;;;5022297;28;20224;-77
2021/08/20 00:22:10;;;;;;;2.00;1.80;;;20.70;99.90;;;;;;5020600;28;20223;-79
2021/08/20 00:24:39;;;;;;;1.60;1.50;;;20.60;99.90;;;;;;5026314;28;20629;-78
2021/08/20 00:27:06;;;;;;;2.15;1.77;;;20.60;99.90;;;;;;5030809;28;20219;-80
2021/08/20 00:29:33;;;;;;;1.83;1.73;;;20.60;99.90;;;;;;5024400;28;20231;-79
2021/08/20 00:32:00;;;;;;;1.63;1.52;;;20.60;99.90;;;;;;5022979;28;20656;-78
2021/08/20 00:34:28;;;;;;;1.98;1.60;;;20.60;99.90;;;;;;5024740;28;20286;-78
2021/08/20 00:36:55;;;;;;;1.90;1.80;;;20.60;99.90;;;;;;5026800;28;20231;-79
2021/08/20 00:39:22;;;;;;;1.83;1.48;;;20.60;99.90;;;;;;5019606;28;20623;-78
2021/08/20 00:41:51;;;;;;;1.75;1.65;;;20.60;99.90;;;;;;5014041;28;20220;-78
2021/08/20 00:44:18;;;;;;;2.25;1.80;;;20.60;99.90;;;;;;5011812;28;20216;-79
2021/08/20 00:46:46;;;;;;;1.85;1.75;;;20.60;99.90;;;;;;5028365;28;20274;-78
2021/08/20 00:49:13;;;;;;;1.98;1.75;;;20.50;99.90;;;;;;5012896;28;20220;-78
2021/08/20 00:51:41;;;;;;;1.70;1.60;;;20.50;99.90;;;;;;5025691;28;20352;-78
2021/08/20 00:54:11;;;;;;;1.77;1.67;;;20.50;99.90;;;;;;5017792;28;20239;-79
2021/08/20 00:56:39;;;;;;;2.15;1.67;;;20.40;99.90;;;;;;5019537;28;20231;-79
2021/08/20 00:59:09;;;;;;;1.80;1.70;;;20.40;99.90;;;;;;5022548;28;20227;-78
2021/08/20 01:01:36;;;;;;;1.60;1.50;;;20.40;99.90;;;;;;5023841;28;20215;-79
2021/08/20 01:04:03;;;;;;;1.52;1.42;;;20.40;99.90;;;;;;5026077;28;20632;-78
2021/08/20 01:06:31;;;;;;;1.42;1.33;;;20.40;99.90;;;;;;5027441;28;20231;-79
2021/08/20 01:08:59;;;;;;;2.10;1.90;;;20.50;99.90;;;;;;5028625;28;20227;-78
2021/08/20 01:11:27;;;;;;;2.22;1.40;;;20.50;99.90;;;;;;5022187;28;20227;-78
2021/08/20 01:13:54;;;;;;;1.60;1.50;;;20.40;99.90;;;;;;5022470;28;20652;-79
2021/08/20 01:16:23;;;;;;;1.73;1.63;;;20.40;99.90;;;;;;5035872;28;20203;-79
2021/08/20 01:18:53;;;;;;;1.67;1.58;;;20.40;99.90;;;;;;5034855;28;20748;-78
2021/08/20 01:21:22;;;;;;;1.50;1.40;;;20.40;99.90;;;;;;5012688;28;20282;-78
2021/08/20 01:23:52;;;;;;;1.63;1.52;;;20.40;99.90;;;;;;5029687;28;20238;-77
2021/08/20 01:26:20;;;;;;;1.60;1.50;;;20.40;99.90;;;;;;5030968;28;20277;-78
2021/08/20 01:28:47;;;;;;;1.67;1.58;;;20.40;99.90;;;;;;5020647;28;20220;-78
2021/08/20 01:31:16;;;;;;;1.65;1.55;;;20.40;99.90;;;;;;5025332;28;20358;-77
2021/08/20 01:33:44;;;;;;;2.00;1.58;;;20.40;99.90;;;;;;5027874;28;20223;-76
2021/08/20 01:36:11;;;;;;;2.28;1.67;;;20.30;99.90;;;;;;5025643;28;20659;-79
2021/08/20 01:38:49;;;;;;;1.75;1.65;;;20.30;99.90;;;;;;5022620;28;20281;-78
2021/08/20 01:41:16;;;;;;;1.65;1.55;;;20.20;99.90;;;;;;5024552;28;20238;-79
2021/08/20 01:43:46;;;;;;;1.60;1.50;;;20.20;99.90;;;;;;5030517;28;20235;-76
2021/08/20 01:46:13;;;;;;;2.08;1.77;;;20.20;99.90;;;;;;5025924;28;20281;-79
2021/08/20 01:48:45;;;;;;;1.67;1.48;;;20.20;99.90;;;;;;5027383;28;20328;-79
2021/08/20 01:51:13;;;;;;;1.65;1.55;;;20.10;99.90;;;;;;5028969;28;20310;-79
2021/08/20 01:53:41;;;;;;;1.77;1.67;;;20.10;99.90;;;;;;5018842;28;20303;-78
2021/08/20 01:56:13;;;;;;;1.70;1.60;;;20.10;99.90;;;;;;5024465;28;20231;-76
2021/08/20 01:58:55;;;;;;;2.03;1.90;;;20.10;99.90;;;;;;4978021;28;21705;-79
2021/08/20 02:01:23;;;;;;;1.92;1.83;;;20.10;99.90;;;;;;5012629;28;20263;-77
2021/08/20 02:03:50;;;;;;;1.90;1.80;;;20.00;99.90;;;;;;5020575;28;20338;-79
2021/08/20 02:06:17;;;;;;;1.70;1.60;;;19.90;99.90;;;;;;5028638;28;20640;-79
2021/08/20 02:08:44;;;;;;;2.22;2.03;;;19.90;99.90;;;;;;5050354;28;20693;-78
2021/08/20 02:11:12;;;;;;;2.10;1.90;;;19.90;99.90;;;;;;5020773;28;20224;-78
2021/08/20 02:13:39;;;;;;;1.73;1.63;;;19.90;99.90;;;;;;5021823;28;20224;-79
2021/08/20 02:16:08;;;;;;;2.08;1.90;;;19.80;99.90;;;;;;5017532;28;20710;-78
2021/08/20 02:18:36;;;;;;;2.00;1.90;;;19.80;99.90;;;;;;5022218;28;20223;-79
2021/08/20 02:21:04;;;;;;;1.92;1.83;;;19.80;99.90;;;;;;5027146;28;20231;-77
2021/08/20 02:23:32;;;;;;;2.35;1.90;;;19.70;99.90;;;;;;5020991;28;20776;-78
2021/08/20 02:25:59;;;;;;;2.10;1.80;;;19.60;99.90;;;;;;5019222;28;20228;-79
2021/08/20 02:28:26;;;;;;;1.88;1.77;;;19.50;99.90;;;;;;5024799;28;20664;-78
2021/08/20 02:30:54;;;;;;;2.22;2.03;;;19.50;99.90;;;;;;5018506;28;20282;-79
2021/08/20 02:33:22;;;;;;;2.17;1.77;;;19.40;99.90;;;;;;5025760;28;20286;-78
2021/08/20 02:35:49;;;;;;;2.88;2.05;;;19.30;99.90;;;;;;5022730;28;20227;-77
2021/08/20 02:38:16;;;;;;;1.90;1.80;;;19.30;99.90;;;;;;5024527;28;20310;-76
2021/08/20 02:40:43;;;;;;;1.90;1.80;;;19.30;99.90;;;;;;5019203;28;20224;-76
2021/08/20 02:43:10;;;;;;;2.22;2.03;;;19.30;99.90;;;;;;5019458;28;20653;-76
2021/08/20 02:45:37;;;;;;;2.35;2.08;;;19.30;99.90;;;;;;5035303;28;20222;-76
2021/08/20 02:48:05;;;;;;;1.92;1.83;;;19.30;99.90;;;;;;5019145;28;20227;-77
2021/08/20 02:50:33;;;;;;;1.98;1.88;;;19.30;99.90;;;;;;5022230;28;20306;-76
2021/08/20 02:53:00;;;;;;;2.17;1.95;;;19.40;99.90;;;;;;5025292;28;20235;-77
2021/08/20 02:55:27;;;;;;;2.08;1.77;;;19.50;99.90;;;;;;5023392;28;20766;-76
2021/08/20 02:57:54;;;;;;;2.10;1.90;;;19.50;99.90;;;;;;5043009;28;20207;-78
2021/08/20 03:00:21;;;;;;;1.83;1.73;;;19.50;99.90;;;;;;5025492;28;20277;-76
2021/08/20 03:02:48;;;;;;;1.90;1.80;;;19.60;99.90;;;;;;5022235;28;20219;-77
2021/08/20 03:05:15;;;;;;;2.70;1.92;;;19.50;99.90;;;;;;5022146;28;20768;-77
2021/08/20 03:07:44;;;;;;;1.80;1.70;;;19.50;99.90;;;;;;5012751;28;20224;-77
2021/08/20 03:10:11;;;;;;;2.17;1.98;;;19.40;99.90;;;;;;5025756;28;20254;-77
2021/08/20 03:12:38;;;;;;;1.92;1.80;;;19.40;99.90;;;;;;5027484;28;20223;-74
2021/08/20 03:15:06;;;;;;;2.38;2.17;;;19.30;99.90;;;;;;5016401;28;20567;-77
2021/08/20 03:17:34;;;;;;;2.05;1.70;;;19.20;99.90;;;;;;5013388;28;20298;-77
2021/08/20 03:20:01;;;;;;;1.90;1.80;;;19.20;99.90;;;;;;5026235;28;20642;-77
2021/08/20 03:22:28;;;;;;;2.50;2.03;;;19.20;99.90;;;;;;5020827;28;20232;-78
2021/08/20 03:24:56;;;;;;;2.13;1.92;;;19.20;99.90;;;;;;5018875;28;20234;-78
2021/08/20 03:27:24;;;;;;;1.73;1.63;;;19.10;99.90;;;;;;5013702;28;20228;-78
2021/08/20 03:29:52;;;;;;;3.25;2.05;;;19.20;99.90;;;;;;5024965;28;20631;-76
2021/08/20 03:32:19;;;;;;;2.40;2.20;;;19.20;99.90;;;;;;5010238;28;20603;-77
2021/08/20 03:34:46;;;;;;;1.83;1.58;;;19.30;99.90;;;;;;5014912;28;20271;-77
2021/08/20 03:37:13;;;;;;;1.95;1.80;;;19.30;99.90;;;;;;5029271;28;20289;-76
2021/08/20 03:39:40;;;;;;;1.70;1.58;;;19.30;99.90;;;;;;5025594;28;20230;-77
2021/08/20 03:42:09;;;;;;;2.15;1.95;;;19.30;99.90;;;;;;5016221;28;20312;-77
2021/08/20 03:44:36;;;;;;;2.20;2.00;;;19.30;99.90;;;;;;5027809;28;20717;-77
2021/08/20 03:47:03;;;;;;;2.00;1.80;;;19.30;99.90;;;;;;5036319;23;20239;-76
2021/08/20 03:49:30;;;;;;;2.08;1.88;;;19.30;99.90;;;;;;5020790;28;20238;-76
2021/08/20 03:51:57;;;;;;;2.05;1.85;;;19.30;99.90;;;;;;5023333;28;20277;-76
2021/08/20 03:54:25;;;;;;;1.98;1.88;;;19.30;99.90;;;;;;5019851;28;20227;-75
2021/08/20 03:56:53;;;;;;;2.15;1.95;;;19.30;99.90;;;;;;5021437;28;20228;-76
2021/08/20 03:59:21;;;;;;;1.98;1.77;;;19.30;99.90;;;;;;5015927;28;20242;-75
2021/08/20 04:01:48;;;;;;;1.80;1.70;;;19.40;99.90;;;;;;5017228;28;20220;-75
2021/08/20 04:04:15;;;;;;;1.95;1.85;;;19.40;99.90;;;;;;5017907;28;20227;-76
2021/08/20 04:06:42;;;;;;;1.88;1.77;;;19.40;99.90;;;;;;5015628;28;20231;-75
2021/08/20 04:09:09;;;;;;;2.03;1.90;;;19.40;99.90;;;;;;5023035;28;20281;-75
2021/08/20 04:11:37;;;;;;;2.13;1.90;;;19.40;99.90;;;;;;5016762;28;20259;-75
2021/08/20 04:14:04;;;;;;;2.10;1.90;;;19.40;99.90;;;;;;5020016;28;20273;-76
2021/08/20 04:16:34;;;;;;;2.25;2.05;;;19.40;99.90;;;;;;5015062;28;20227;-75
2021/08/20 04:19:01;;;;;;;2.17;1.98;;;19.40;99.90;;;;;;5018195;28;20227;-75
2021/08/20 04:21:28;;;;;;;2.30;2.10;;;19.60;99.90;;;;;;5016697;28;20804;-75
2021/08/20 04:23:55;;;;;;;2.00;1.83;;;19.70;99.90;;;;;;5016729;28;20277;-75
2021/08/20 04:26:22;;;;;;;2.00;1.80;;;19.80;99.90;;;;;;5012259;28;20228;-74
2021/08/20 04:28:51;;;;;;;2.10;1.90;;;19.90;99.90;;;;;;5011122;28;20231;-76
2021/08/20 04:31:19;;;;;;;2.63;2.17;;;19.90;99.90;;;;;;5020077;28;20216;-75
2021/08/20 04:33:47;;;;;;;4.13;1.83;;;20.00;99.90;;;;;;5019803;28;20265;-74
2021/08/20 04:36:14;;;;;;;2.38;2.00;;;20.00;99.90;;;;;;5020390;28;21065;-75
2021/08/20 04:38:43;;;;;;;2.20;2.00;;;20.00;99.90;;;;;;5019656;28;20243;-75
2021/08/20 04:41:10;;;;;;;2.47;1.90;;;20.00;99.90;;;;;;5015834;28;20743;-75
2021/08/20 04:43:37;;;;;;;1.75;1.65;;;20.00;99.90;;;;;;5018388;28;20686;-75
2021/08/20 04:46:05;;;;;;;2.00;1.77;;;20.00;99.90;;;;;;5017420;28;20310;-76
2021/08/20 04:48:32;;;;;;;3.85;2.20;;;20.00;99.90;;;;;;5021287;28;20699;-75
2021/08/20 04:51:01;;;;;;;2.65;2.00;;;20.00;99.90;;;;;;5016543;28;20495;-75
2021/08/20 04:53:30;;;;;;;2.00;1.80;;;20.00;99.90;;;;;;5020950;28;20219;-76
2021/08/20 04:55:57;;;;;;;2.10;1.92;;;20.00;99.90;;;;;;5023498;28;20656;-75
2021/08/20 04:58:25;;;;;;;2.17;1.98;;;20.00;99.90;;;;;;5025459;28;20243;-76
2021/08/20 05:00:52;;;;;;;2.10;1.83;;;20.00;99.90;;;;;;5019450;28;20228;-76
2021/08/20 05:03:19;;;;;;;2.20;2.00;;;20.00;99.90;;;;;;5020572;28;20231;-75
2021/08/20 05:05:46;;;;;;;2.25;1.98;;;20.00;99.90;;;;;;5019026;28;20216;-76
2021/08/20 05:08:15;;;;;;;2.72;1.70;;;20.00;99.90;;;;;;5018592;28;20223;-73
2021/08/20 05:10:42;;;;;;;3.17;2.30;;;20.00;99.90;;;;;;5017886;28;20273;-75
2021/08/20 05:13:09;;;;;;;2.38;1.95;;;20.00;99.90;;;;;;5019963;28;20772;-74
2021/08/20 05:15:37;;;;;;;1.88;1.73;;;20.00;99.90;;;;;;5018564;28;20231;-75
2021/08/20 05:18:04;;;;;;;2.22;2.03;;;20.00;99.90;;;;;;5020893;28;20235;-75
2021/08/20 05:20:31;;;;;;;2.50;2.30;;;20.10;99.90;;;;;;5020994;28;20223;-73
2021/08/20 05:22:58;;;;;;;1.90;1.70;;;20.20;99.90;;;;;;5024724;28;20273;-75
2021/08/20 05:25:32;;;;;;;2.00;1.85;;;20.40;99.90;;;;;;5023772;28;20253;-75
2021/08/20 05:27:59;;;;;;;2.28;2.08;;;20.40;99.90;;;;;;5025531;28;20227;-75
2021/08/20 05:30:26;;;;;;;1.95;1.75;;;20.60;99.90;;;;;;5023362;28;20302;-75
2021/08/20 05:32:53;;;;;;;2.45;2.05;;;20.90;99.90;;;;;;5022982;28;20278;-75
2021/08/20 05:35:20;;;;;;;2.78;2.15;;;21.10;99.90;;;;;;5021545;28;20235;-75
2021/08/20 05:37:48;;;;;;;2.45;2.25;;;21.30;99.90;;;;;;5020689;28;21499;-75
2021/08/20 05:40:17;;;;;;;2.92;2.42;;;21.30;99.90;;;;;;5024392;28;20603;-75
2021/08/20 05:42:45;;;;;;;2.88;2.60;;;21.20;99.90;;;;;;5019503;28;20223;-75
2021/08/20 05:45:13;;;;;;;2.50;2.13;;;21.10;99.90;;;;;;5018229;28;20495;-76
2021/08/20 05:47:40;;;;;;;3.22;2.60;;;21.10;99.90;;;;;;5024503;28;20235;-76
2021/08/20 05:50:08;;;;;;;2.90;2.70;;;21.10;99.90;;;;;;5024966;28;20228;-75
2021/08/20 05:52:37;;;;;;;2.72;2.53;;;21.10;99.90;;;;;;5024016;28;20288;-75
2021/08/20 05:55:07;;;;;;;3.50;2.88;;;21.20;99.90;;;;;;5023721;28;20739;-75
2021/08/20 05:57:34;;;;;;;4.70;2.78;;;21.40;99.90;;;;;;5018759;28;20320;-75
2021/08/20 06:00:02;;;;;;;3.13;2.80;;;21.60;99.90;;;;;;5015199;28;20243;-76
2021/08/20 06:02:29;;;;;;;4.18;2.70;;;21.80;99.90;;;;;;5014656;28;20227;-75
2021/08/20 06:04:58;;;;;;;12.13;3.80;;;22.00;99.90;;;;;;5019906;28;20219;-74
2021/08/20 06:07:25;;;;;;;7.72;2.88;;;22.20;99.90;;;;;;5013563;28;20240;-74
2021/08/20 06:09:52;;;;;;;3.38;3.03;;;22.40;99.90;;;;;;5012617;28;20227;-76
2021/08/20 06:12:19;;;;;;;4.78;2.85;;;22.60;99.90;;;;;;5013844;28;20223;-76
2021/08/20 06:14:46;;;;;;;3.70;2.70;;;22.70;99.90;;;;;;5010981;28;20346;-77
2021/08/20 06:17:15;;;;;;;3.33;2.50;;;22.80;99.90;;;;;;5013702;28;20669;-76
2021/08/20 06:19:42;;;;;;;4.10;2.90;;;22.80;99.90;;;;;;5012208;28;20228;-76
2021/08/20 06:22:09;;;;;;;3.10;2.47;;;22.90;99.90;;;;;;5012740;28;20215;-76
2021/08/20 06:24:36;;;;;;;4.82;2.88;;;23.10;99.90;;;;;;5013098;28;20305;-77
2021/08/20 06:27:03;;;;;;;3.13;2.70;;;23.30;99.90;;;;;;5017161;28;20772;-77
2021/08/20 06:29:30;;;;;;;3.28;2.80;;;23.40;99.90;;;;;;5019071;28;20238;-76
2021/08/20 06:31:57;;;;;;;2.78;2.58;;;23.20;99.90;;;;;;5019473;28;20281;-75
2021/08/20 06:34:25;;;;;;;3.03;2.72;;;22.90;99.90;;;;;;5012348;28;20285;-77
2021/08/20 06:36:52;;;;;;;3.45;2.85;;;22.80;99.90;;;;;;5010418;28;20807;-76
2021/08/20 06:39:19;;;;;;;3.30;3.00;;;22.70;99.90;;;;;;5011847;28;20286;-76
2021/08/20 06:41:46;;;;;;;2.85;2.65;;;22.40;99.90;;;;;;5012754;28;20925;-77
2021/08/20 06:44:13;;;;;;;3.22;2.92;;;22.20;99.90;;;;;;5013319;28;20216;-76
2021/08/20 06:46:41;;;;;;;4.53;3.03;;;22.20;99.90;;;;;;5011199;28;20224;-76
2021/08/20 06:49:08;;;;;;;2.80;2.60;;;22.30;99.90;;;;;;5012112;28;20621;-76
2021/08/20 06:51:37;;;;;;;3.28;2.67;;;22.60;99.90;;;;;;5009217;28;20228;-76
2021/08/20 06:54:05;;;;;;;2.80;2.38;;;23.00;99.90;;;;;;5016017;28;20223;-76
2021/08/20 06:56:32;;;;;;;2.30;2.10;;;23.40;99.90;;;;;;5011993;28;20440;-76
2021/08/20 06:58:59;;;;;;;3.63;2.72;;;23.60;99.90;;;;;;5016557;28;20292;-77
2021/08/20 07:01:26;;;;;;;2.63;2.42;;;23.80;99.90;;;;;;5011655;28;20322;-76
2021/08/20 07:03:54;;;;;;;3.88;2.97;;;24.00;99.90;;;;;;5015449;28;20231;-77
2021/08/20 07:06:23;;;;;;;3.92;2.78;;;24.10;99.90;;;;;;5016077;28;20680;-74
2021/08/20 07:08:52;;;;;;;3.03;2.70;;;23.90;99.90;;;;;;5013065;28;20231;-76
2021/08/20 07:11:20;;;;;;;4.82;2.85;;;23.70;99.90;;;;;;5013805;28;20215;-74
2021/08/20 07:13:48;;;;;;;3.00;2.70;;;23.70;99.90;;;;;;5006285;28;20271;-75
2021/08/20 07:16:15;;;;;;;3.50;2.50;;;23.80;99.90;;;;;;5017313;28;20223;-76
2021/08/20 07:18:42;;;;;;;4.30;2.63;;;23.90;99.90;;;;;;5012232;28;20467;-75
2021/08/20 07:21:10;;;;;;;3.45;2.83;;;24.20;99.90;;;;;;5014467;28;20722;-76
2021/08/20 07:23:37;;;;;;;3.22;2.92;;;24.20;99.90;;;;;;5009470;28;20220;-74
2021/08/20 07:26:07;;;;;;;3.40;2.70;;;24.20;99.90;;;;;;5011800;28;20230;-76
2021/08/20 07:28:35;;;;;;;3.95;3.00;;;24.20;99.90;;;;;;5011887;28;20430;-76
2021/08/20 07:31:02;;;;;;;4.10;3.10;;;24.30;99.90;;;;;;5005468;28;20823;-75
2021/08/20 07:33:30;;;;;;;3.05;2.75;;;24.40;99.90;;;;;;5011271;28;20762;-76
2021/08/20 07:35:58;;;;;;;2.95;2.65;;;24.40;99.90;;;;;;5012869;28;21472;-76
2021/08/20 07:38:25;;;;;;;2.83;2.63;;;24.40;99.90;;;;;;5016106;28;20345;-76
2021/08/20 07:40:52;;;;;;;3.20;2.65;;;24.40;99.90;;;;;;5007543;28;20559;-76
2021/08/20 07:43:21;;;;;;;3.10;2.80;;;24.50;99.90;;;;;;5009923;28;21280;-74
2021/08/20 07:45:48;;;;;;;3.85;2.50;;;24.60;99.90;;;;;;5010982;28;20215;-76
2021/08/20 07:48:15;;;;;;;3.13;2.83;;;24.70;99.90;;;;;;5014231;28;20223;-76
2021/08/20 07:50:46;;;;;;;3.22;2.92;;;24.80;99.90;;;;;;5010248;28;20226;-76
2021/08/20 07:53:15;;;;;;;2.88;2.30;;;24.90;99.90;;;;;;5012259;28;20310;-76
2021/08/20 07:55:42;;;;;;;3.10;2.47;;;25.00;99.90;;;;;;5011142;28;20478;-75
2021/08/20 07:58:09;;;;;;;2.40;2.20;;;25.10;99.90;;;;;;5016763;28;20222;-76
2021/08/20 08:00:38;;;;;;;2.50;2.30;;;25.20;99.90;;;;;;5010387;28;20298;-76
2021/08/20 08:03:05;;;;;;;3.53;2.75;;;25.50;99.90;;;;;;5009062;28;20253;-75
2021/08/20 08:05:32;;;;;;;2.97;2.60;;;25.50;99.90;;;;;;5011351;28;20238;-75
2021/08/20 08:07:59;;;;;;;3.35;2.60;;;25.60;99.90;;;;;;5010603;28;20306;-76
2021/08/20 08:10:26;;;;;;;4.05;2.63;;;25.60;99.90;;;;;;5018749;28;20277;-76
2021/08/20 08:12:54;;;;;;;2.92;2.65;;;25.50;99.90;;;;;;5011622;28;20227;-76
2021/08/20 08:15:22;;;;;;;3.35;2.70;;;25.50;99.90;;;;;;5008682;28;20257;-74
2021/08/20 08:17:51;;;;;;;2.65;2.45;;;25.60;99.90;;;;;;5007703;28;20230;-75
2021/08/20 08:20:19;;;;;;;6.00;2.80;;;25.60;99.90;;;;;;5009891;28;20227;-76
2021/08/20 08:22:46;;;;;;;3.00;2.63;;;25.60;99.90;;;;;;5007602;28;20560;-75
2021/08/20 08:25:16;;;;;;;2.83;2.42;;;25.60;99.90;;;;;;5007438;28;20290;-76
2021/08/20 08:27:51;;;;;;;2.83;2.63;;;25.70;99.90;;;;;;5011132;28;20231;-75
2021/08/20 08:30:19;;;;;;;5.55;2.92;;;25.60;99.90;;;;;;5011769;28;20219;-73
2021/08/20 08:32:46;;;;;;;3.78;3.03;;;25.60;99.90;;;;;;5013186;28;20689;-76
2021/08/20 08:35:15;;;;;;;2.58;2.30;;;25.60;99.90;;;;;;5010056;28;20277;-76
2021/08/20 08:37:42;;;;;;;3.00;2.80;;;25.90;99.90;;;;;;5013729;28;20278;-76
2021/08/20 08:40:11;;;;;;;7.95;2.90;;;26.00;99.90;;;;;;5007219;28;20745;-75
2021/08/20 08:42:38;;;;;;;3.47;2.65;;;26.00;99.90;;;;;;5013896;28;20648;-75
2021/08/20 08:45:07;;;;;;;4.65;2.70;;;26.20;99.90;;;;;;5013755;28;20219;-75
2021/08/20 08:47:35;;;;;;;3.50;2.92;;;26.20;99.90;;;;;;5008887;28;20249;-75
2021/08/20 08:50:05;;;;;;;2.90;2.60;;;26.10;99.90;;;;;;5008796;28;20279;-74
2021/08/20 08:52:34;;;;;;;4.60;2.80;;;26.10;99.90;;;;;;5008714;28;20314;-76
2021/08/20 08:55:03;;;;;;;2.60;2.40;;;26.10;99.90;;;;;;5012753;28;20226;-73
2021/08/20 08:57:30;;;;;;;4.15;2.42;;;26.30;99.90;;;;;;5011578;28;20657;-76
2021/08/20 08:59:57;;;;;;;2.92;2.67;;;26.50;99.90;;;;;;5011034;28;20223;-75
2021/08/20 09:02:26;;;;;;;2.80;2.50;;;26.50;99.90;;;;;;5006099;28;21374;-75
2021/08/20 09:04:58;;;;;;;2.65;2.45;;;26.70;99.90;;;;;;5014862;28;20227;-75
2021/08/20 09:07:26;;;;;;;2.58;2.38;;;26.70;99.90;;;;;;5009127;28;20223;-76
2021/08/20 09:10:27;;;;;;;2.65;2.35;;;26.60;99.90;;;;;;5010455;28;20309;-76
2021/08/20 09:12:57;;;;;;;3.38;2.20;;;26.50;99.90;;;;;;4966247;28;20238;-76
2021/08/20 09:15:27;;;;;;;4.25;2.20;;;26.60;99.90;;;;;;4964404;28;20236;-76
2021/08/20 09:17:56;;;;;;;3.15;2.58;;;27.00;99.90;;;;;;4984978;28;20277;-76
2021/08/20 09:20:25;;;;;;;2.90;2.60;;;27.30;99.90;;;;;;5011841;28;20832;-76
2021/08/20 09:22:56;;;;;;;3.97;2.58;;;27.20;99.90;;;;;;5011261;28;20235;-75
2021/08/20 09:25:36;;;;;;;2.20;2.10;;;27.10;99.90;;;;;;5007545;28;20637;-76
2021/08/20 09:28:15;;;;;;;2.53;2.30;;;27.10;99.90;;;;;;5008112;28;20836;-76
2021/08/20 09:30:43;;;;;;;2.85;2.45;;;27.20;99.90;;;;;;5011396;28;20451;-76
2021/08/20 09:33:12;;;;;;;2.35;2.15;;;27.20;99.90;;;;;;5008375;28;20223;-76
2021/08/20 09:35:40;;;;;;;2.40;2.20;;;27.30;99.90;;;;;;5013833;28;21487;-76
2021/08/20 09:38:09;;;;;;;2.78;2.55;;;27.40;99.90;;;;;;5017190;28;20308;-74
2021/08/20 09:40:38;;;;;;;2.40;2.20;;;27.40;99.90;;;;;;5013083;28;20620;-76
2021/08/20 09:43:19;;;;;;;3.90;2.78;;;27.50;99.90;;;;;;5014496;28;20230;-76
2021/08/20 09:45:59;;;;;;;2.53;2.33;;;27.40;99.90;;;;;;5008655;28;20223;-76
2021/08/20 09:48:46;;;;;;;4.78;2.67;;;27.30;99.90;;;;;;5005082;23;20277;-78
2021/08/20 09:51:46;;;;;;;3.85;2.75;;;27.40;99.90;;;;;;5014234;28;20216;-78
2021/08/20 09:54:15;;;;;;;3.15;2.85;;;27.50;99.90;;;;;;5015254;28;20219;-79
2021/08/20 09:56:46;;;;;;;3.05;2.78;;;27.50;99.90;;;;;;5017641;28;20283;-79
2021/08/20 09:59:14;;;;;;;2.47;2.22;;;27.40;99.90;;;;;;4998357;28;20224;-78
2021/08/20 10:01:42;;;;;;;3.90;2.95;;;27.50;99.90;;;;;;5003074;28;20228;-77
2021/08/20 10:04:11;;;;;;;2.95;2.60;;;27.50;99.90;;;;;;5002969;28;20220;-78
2021/08/20 10:06:40;;;;;;;5.13;3.20;;;27.40;99.90;;;;;;4998587;28;20232;-79
2021/08/20 10:09:26;;;;;;;3.30;3.00;;;27.40;99.90;;;;;;4966170;28;20227;-78
2021/08/20 10:11:55;;;;;;;2.83;2.60;;;27.60;99.90;;;;;;4996211;28;20228;-78
2021/08/20 10:14:25;;;;;;;3.03;2.75;;;27.70;99.90;;;;;;5006579;28;20306;-78
2021/08/20 10:16:52;;;;;;;5.93;2.78;;;27.90;99.90;;;;;;4997901;28;20247;-79
2021/08/20 10:19:20;;;;;;;2.95;2.50;;;27.80;99.90;;;;;;4998751;28;20229;-78
2021/08/20 10:21:47;;;;;;;2.58;2.38;;;27.80;99.90;;;;;;4994803;28;20274;-80
2021/08/20 10:24:15;;;;;;;3.50;2.85;;;27.70;99.90;;;;;;5002226;28;20277;-79
2021/08/20 10:26:45;;;;;;;2.65;2.45;;;27.70;99.90;;;;;;4996677;28;20672;-78
2021/08/20 10:29:15;;;;;;;2.92;2.72;;;27.70;99.90;;;;;;4999269;28;20293;-78
2021/08/20 10:31:43;;;;;;;3.20;2.88;;;27.80;99.90;;;;;;5007691;28;20221;-79
2021/08/20 10:34:37;;;;;;;5.78;2.80;;;27.90;99.90;;;;;;5000252;28;20223;-79
2021/08/20 10:37:18;;;;;;;2.75;2.45;;;27.80;99.90;;;;;;4999995;28;20277;-79
2021/08/20 10:39:47;;;;;;;2.40;2.20;;;27.80;99.90;;;;;;4997764;28;20253;-80
2021/08/20 10:42:15;;;;;;;2.38;2.17;;;27.90;99.90;;;;;;4998990;28;20242;-79
2021/08/20 10:44:45;;;;;;;2.33;2.13;;;28.00;99.90;;;;;;4997299;28;20224;-79
2021/08/20 10:47:25;;;;;;;8.38;3.55;;;28.00;99.90;;;;;;5006658;28;20243;-78
2021/08/20 10:50:16;;;;;;;2.90;2.55;;;28.20;99.90;;;;;;4985475;28;20228;-78
2021/08/20 10:53:25;;;;;;;3.67;2.58;;;28.40;99.90;;;;;;5019422;28;20247;-80
2021/08/20 10:56:03;;;;;;;3.40;2.47;;;28.80;99.90;;;;;;5010240;28;20266;-79
2021/08/20 10:58:41;;;;;;;3.03;2.60;;;28.70;99.90;;;;;;5013310;28;20228;-78
2021/08/20 11:01:21;;;;;;;2.60;2.40;;;28.80;99.90;;;;;;5011516;28;20223;-78
2021/08/20 11:03:49;;;;;;;3.20;2.63;;;28.90;99.90;;;;;;5016492;28;20243;-77
2021/08/20 11:06:48;;;;;;;2.83;2.35;;;28.90;99.90;;;;;;4998424;28;20294;-78
2021/08/20 11:09:31;;;;;;;2.60;2.40;;;29.00;99.90;;;;;;4998597;28;20287;-79
2021/08/20 11:12:00;;;;;;;2.42;2.22;;;28.80;99.90;;;;;;4998889;28;20223;-78
2021/08/20 11:14:36;;;;;;;2.85;2.30;;;28.80;99.90;;;;;;4998312;28;20228;-78
2021/08/20 11:17:07;;;;;;;2.47;2.28;;;28.90;99.90;;;;;;4992437;28;20983;-79
2021/08/20 11:19:49;;;;;;;2.70;2.17;;;28.80;99.90;;;;;;4999771;28;20234;-77
2021/08/20 11:22:27;;;;;;;2.40;2.20;;;28.80;99.90;;;;;;5001829;28;20223;-80
2021/08/20 11:25:16;;;;;;;2.60;2.40;;;28.80;99.90;;;;;;5004074;28;20232;-80
2021/08/20 11:27:56;;;;;;;2.97;2.70;;;28.80;99.90;;;;;;5001364;28;20314;-78
2021/08/20 11:30:23;;;;;;;3.47;2.45;;;28.90;99.90;;;;;;4998922;28;20230;-79
2021/08/20 11:33:06;;;;;;;3.35;2.45;;;28.90;99.90;;;;;;4996019;28;20228;-80
2021/08/20 11:35:33;;;;;;;2.70;2.50;;;29.00;99.90;;;;;;5002140;28;20219;-80
2021/08/20 11:38:00;;;;;;;4.13;2.40;;;28.90;99.90;;;;;;4995429;28;20302;-79
2021/08/20 11:40:27;;;;;;;4.47;2.28;;;28.90;99.90;;;;;;4995868;28;21544;-80
2021/08/20 11:43:09;;;;;;;3.00;2.50;;;28.90;99.90;;;;;;5000103;28;20701;-79
2021/08/20 11:45:37;;;;;;;2.95;2.28;;;28.80;99.90;;;;;;5002536;28;20299;-80
2021/08/20 11:48:06;;;;;;;3.85;2.38;;;28.90;99.90;;;;;;4998146;28;20247;-80
2021/08/20 11:50:34;;;;;;;2.63;2.42;;;28.80;99.90;;;;;;5000345;28;20666;-79
2021/08/20 11:53:02;;;;;;;4.97;2.58;;;28.80;99.90;;;;;;5000503;28;20235;-80
2021/08/20 11:55:29;;;;;;;5.63;2.53;;;28.90;99.90;;;;;;4999074;28;20231;-78
2021/08/20 11:57:56;;;;;;;3.00;2.70;;;28.80;99.90;;;;;;4996411;28;20707;-80
2021/08/20 12:00:37;;;;;;;2.47;2.28;;;28.80;99.90;;;;;;4992897;28;20227;-81
2021/08/20 12:03:10;;;;;;;2.80;2.35;;;28.90;99.90;;;;;;5005275;28;20267;-81
2021/08/20 12:05:37;;;;;;;2.40;2.20;;;28.80;99.90;;;;;;4996665;28;20234;-79
2021/08/20 12:08:15;;;;;;;2.15;1.90;;;28.80;99.90;;;;;;4999797;28;20231;-81
2021/08/20 12:10:47;;;;;;;3.50;2.67;;;29.00;99.90;;;;;;5003744;28;20298;-79
2021/08/20 12:13:15;;;;;;;2.60;2.40;;;29.20;99.90;;;;;;5001220;28;20227;-81
2021/08/20 12:15:42;;;;;;;2.92;2.50;;;29.40;99.90;;;;;;4996701;28;20242;-79
2021/08/20 12:18:21;;;;;;;2.83;2.22;;;29.50;99.90;;;;;;4996029;28;20626;-81
2021/08/20 12:20:48;;;;;;;4.28;2.40;;;29.60;99.90;;;;;;4992107;28;20238;-80
2021/08/20 12:23:16;;;;;;;2.92;2.28;;;29.40;99.90;;;;;;4998516;28;20232;-79
2021/08/20 12:25:43;;;;;;;2.53;2.33;;;29.30;99.90;;;;;;5006073;28;20220;-80
2021/08/20 12:28:12;;;;;;;2.75;2.25;;;29.10;99.90;;;;;;4998347;28;20223;-79
2021/08/20 12:30:40;;;;;;;3.75;2.60;;;29.10;99.90;;;;;;4998672;28;20709;-79
2021/08/20 12:33:07;;;;;;;2.50;2.30;;;29.20;99.90;;;;;;4998999;28;20231;-80
2021/08/20 12:35:35;;;;;;;2.58;2.20;;;29.20;99.90;;;;;;5002965;28;20274;-81
2021/08/20 12:38:06;;;;;;;2.15;1.98;;;29.30;99.90;;;;;;4997157;28;20236;-79
2021/08/20 12:40:41;;;;;;;2.63;2.40;;;29.20;99.90;;;;;;4994511;28;20439;-80
2021/08/20 12:43:23;;;;;;;3.65;2.78;;;29.40;99.90;;;;;;4991886;28;20221;-80
2021/08/20 12:46:11;;;;;;;1.90;1.80;;;29.30;99.90;;;;;;4997705;28;20222;-79
2021/08/20 12:48:40;;;;;;;2.72;2.40;;;29.10;99.90;;;;;;4993790;28;20224;-79
2021/08/20 12:51:10;;;;;;;2.55;2.35;;;29.10;99.90;;;;;;4996817;28;20267;-79
2021/08/20 12:53:39;;;;;;;3.75;2.58;;;29.10;99.90;;;;;;4993584;28;20216;-79
2021/08/20 12:56:07;;;;;;;2.42;2.22;;;29.10;99.90;;;;;;5001400;28;20709;-80
2021/08/20 12:58:35;;;;;;;2.75;2.28;;;29.10;99.90;;;;;;4998080;28;20231;-81
2021/08/20 13:01:07;;;;;;;3.10;2.10;;;29.20;99.90;;;;;;4999130;28;20614;-79
2021/08/20 13:03:34;;;;;;;2.42;2.20;;;29.20;99.90;;;;;;4998629;28;20582;-80